createdAt,value
2018-06-20T00:00:45.578Z,4.00
2018-06-20T00:01:45.599Z,4.00
2018-06-20T00:02:45.626Z,4.00
2018-06-20T00:03:45.651Z,4.00
2018-06-20T00:04:45.673Z,4.00
2018-06-20T00:05:45.697Z,4.00
2018-06-20T00:06:45.724Z,4.00
2018-06-20T00:07:45.745Z,4.00
2018-06-20T00:08:45.773Z,4.00
2018-06-20T00:09:45.797Z,4.00
2018-06-20T00:10:45.818Z,4.00
2018-06-20T00:11:45.849Z,4.00
2018-06-20T00:12:45.867Z,4.00
2018-06-20T00:13:45.891Z,4.00
2018-06-20T00:14:45.915Z,4.00
2018-06-20T00:15:45.943Z,4.00
2018-06-20T00:16:45.966Z,4.00
2018-06-20T00:17:45.991Z,4.00
2018-06-20T00:18:46.016Z,4.00
2018-06-20T00:19:46.039Z,4.00
2018-06-20T00:20:46.063Z,4.00
2018-06-20T00:21:46.085Z,4.00
2018-06-20T00:22:46.109Z,4.00
2018-06-20T00:23:46.134Z,4.00
2018-06-20T00:24:46.158Z,4.00
2018-06-20T00:25:46.183Z,4.00
2018-06-20T00:26:46.207Z,4.00
2018-06-20T00:27:46.231Z,4.00
2018-06-20T00:28:46.257Z,4.00
2018-06-20T00:29:46.278Z,4.00
2018-06-20T00:30:46.304Z,4.00
2018-06-20T00:31:46.330Z,4.00
2018-06-20T00:32:46.354Z,4.00
2018-06-20T00:33:46.379Z,4.00
2018-06-20T00:34:46.404Z,4.00
2018-06-20T00:35:46.424Z,4.00
2018-06-20T00:36:46.452Z,4.00
2018-06-20T00:37:46.474Z,4.00
2018-06-20T00:38:46.499Z,4.00
2018-06-20T00:39:46.521Z,4.00
2018-06-20T00:40:46.546Z,4.00
2018-06-20T00:41:46.573Z,4.00
2018-06-20T00:42:46.597Z,4.00
2018-06-20T00:43:46.621Z,4.00
2018-06-20T00:44:46.646Z,4.00
2018-06-20T00:45:46.668Z,4.00
2018-06-20T00:46:46.690Z,4.00
2018-06-20T00:47:46.715Z,4.00
2018-06-20T00:48:46.742Z,4.00
2018-06-20T00:49:46.769Z,4.00
2018-06-20T00:50:46.792Z,4.00
2018-06-20T00:51:46.814Z,4.00
2018-06-20T00:52:46.836Z,4.00
2018-06-20T00:53:46.863Z,4.00
2018-06-20T00:54:46.884Z,4.00
2018-06-20T00:55:46.910Z,4.00
2018-06-20T00:56:46.938Z,4.00
2018-06-20T00:57:46.959Z,4.00
2018-06-20T00:58:46.980Z,4.00
2018-06-20T00:59:47.008Z,4.00
2018-06-20T01:00:47.029Z,4.00
2018-06-20T01:01:47.055Z,4.00
2018-06-20T01:02:47.081Z,4.00
2018-06-20T01:03:47.105Z,4.00
2018-06-20T01:04:47.128Z,4.00
2018-06-20T01:05:47.150Z,4.00
2018-06-20T01:06:47.176Z,4.00
2018-06-20T01:07:47.202Z,4.00
2018-06-20T01:08:47.224Z,4.00
2018-06-20T01:09:47.247Z,4.00
2018-06-20T01:10:47.283Z,4.00
2018-06-20T01:11:47.434Z,4.00
2018-06-20T01:12:47.322Z,4.00
2018-06-20T01:13:47.346Z,4.00
2018-06-20T01:14:47.372Z,4.00
2018-06-20T01:15:47.391Z,4.00
2018-06-20T01:16:47.420Z,4.00
2018-06-20T01:17:47.443Z,4.00
2018-06-20T01:18:47.464Z,4.00
2018-06-20T01:19:47.491Z,4.00
2018-06-20T01:20:47.513Z,4.00
2018-06-20T01:21:47.537Z,4.00
2018-06-20T01:22:47.563Z,4.00
2018-06-20T01:23:47.590Z,4.00
2018-06-20T01:24:47.610Z,4.00
2018-06-20T01:25:47.633Z,4.00
2018-06-20T01:26:47.660Z,4.00
2018-06-20T01:27:47.685Z,4.00
2018-06-20T01:28:47.707Z,4.00
2018-06-20T01:29:47.731Z,4.00
2018-06-20T01:30:47.755Z,4.00
2018-06-20T01:31:47.779Z,4.00
2018-06-20T01:32:47.804Z,4.00
2018-06-20T01:33:47.831Z,4.00
2018-06-20T01:34:47.855Z,4.00
2018-06-20T01:35:47.876Z,4.00
2018-06-20T01:36:47.904Z,4.00
2018-06-20T01:37:47.926Z,4.00
2018-06-20T01:38:47.950Z,4.00
2018-06-20T01:39:47.978Z,4.00
2018-06-20T01:40:48.000Z,4.00
2018-06-20T01:41:48.021Z,4.00
2018-06-20T01:42:48.045Z,4.00
2018-06-20T01:43:48.072Z,4.00
2018-06-20T01:44:48.100Z,4.00
2018-06-20T01:45:48.120Z,4.00
2018-06-20T01:46:48.141Z,4.00
2018-06-20T01:47:48.166Z,4.00
2018-06-20T01:48:48.194Z,4.00
2018-06-20T01:49:48.214Z,4.00
2018-06-20T01:50:48.237Z,4.00
2018-06-20T01:51:48.262Z,4.00
2018-06-20T01:52:48.289Z,4.00
2018-06-20T01:53:48.309Z,4.00
2018-06-20T01:54:48.334Z,4.00
2018-06-20T01:55:48.359Z,4.00
2018-06-20T01:56:48.382Z,4.00
2018-06-20T01:57:48.407Z,4.00
2018-06-20T01:58:48.432Z,4.00
2018-06-20T01:59:48.454Z,4.00
2018-06-20T02:00:48.479Z,4.00
2018-06-20T02:01:48.504Z,4.00
2018-06-20T02:02:48.526Z,4.00
2018-06-20T02:03:48.550Z,4.00
2018-06-20T02:04:48.574Z,4.00
2018-06-20T02:05:48.597Z,4.00
2018-06-20T02:06:48.624Z,4.00
2018-06-20T02:07:48.649Z,4.00
2018-06-20T02:08:48.669Z,4.00
2018-06-20T02:09:48.696Z,4.00
2018-06-20T02:10:48.719Z,4.00
2018-06-20T02:11:48.742Z,4.00
2018-06-20T02:12:48.765Z,4.00
2018-06-20T02:13:48.791Z,4.00
2018-06-20T02:14:48.812Z,4.00
2018-06-20T02:15:48.839Z,8.00
2018-06-20T02:16:48.861Z,4.00
2018-06-20T02:17:48.888Z,8.00
2018-06-20T02:18:48.906Z,8.00
2018-06-20T02:19:48.931Z,8.00
2018-06-20T02:20:48.958Z,8.00
2018-06-20T02:21:48.979Z,8.00
2018-06-20T02:22:49.006Z,8.00
2018-06-20T02:23:49.034Z,8.00
2018-06-20T02:24:49.052Z,8.00
2018-06-20T02:25:49.074Z,8.00
2018-06-20T02:26:49.097Z,8.00
2018-06-20T02:27:49.125Z,4.00
2018-06-20T02:28:49.148Z,4.00
2018-06-20T02:29:49.173Z,4.00
2018-06-20T02:30:49.195Z,4.00
2018-06-20T02:31:49.222Z,4.00
2018-06-20T02:32:49.243Z,4.00
2018-06-20T02:33:49.266Z,8.00
2018-06-20T02:34:49.292Z,8.00
2018-06-20T02:35:49.313Z,8.00
2018-06-20T02:36:49.405Z,8.00
2018-06-20T02:37:49.359Z,4.00
2018-06-20T02:38:49.387Z,8.00
2018-06-20T02:39:49.409Z,8.00
2018-06-20T02:40:49.433Z,8.00
2018-06-20T02:41:49.458Z,8.00
2018-06-20T02:42:49.479Z,8.00
2018-06-20T02:43:49.504Z,8.00
2018-06-20T02:44:49.531Z,8.00
2018-06-20T02:45:49.550Z,12.00
2018-06-20T02:46:49.574Z,8.00
2018-06-20T02:47:49.600Z,8.00
2018-06-20T02:48:49.628Z,12.00
2018-06-20T02:49:49.648Z,8.00
2018-06-20T02:50:49.671Z,12.00
2018-06-20T02:51:49.695Z,12.00
2018-06-20T02:52:49.744Z,12.00
2018-06-20T02:53:49.744Z,12.00
2018-06-20T02:54:49.765Z,16.00
2018-06-20T02:55:49.792Z,8.00
2018-06-20T02:56:49.815Z,8.00
2018-06-20T02:57:49.840Z,12.00
2018-06-20T02:58:49.866Z,12.00
2018-06-20T02:59:49.885Z,12.00
2018-06-20T03:00:49.908Z,12.00
2018-06-20T03:01:49.936Z,16.00
2018-06-20T03:02:49.956Z,16.00
2018-06-20T03:03:49.980Z,20.00
2018-06-20T03:04:50.008Z,20.00
2018-06-20T03:05:50.028Z,24.00
2018-06-20T03:06:50.053Z,28.00
2018-06-20T03:07:50.080Z,24.00
2018-06-20T03:08:50.105Z,28.00
2018-06-20T03:09:50.128Z,28.00
2018-06-20T03:10:50.152Z,28.00
2018-06-20T03:11:50.178Z,28.00
2018-06-20T03:12:50.199Z,28.00
2018-06-20T03:13:50.222Z,32.00
2018-06-20T03:14:50.246Z,32.00
2018-06-20T03:15:50.272Z,36.00
2018-06-20T03:16:50.293Z,40.00
2018-06-20T03:17:50.318Z,40.00
2018-06-20T03:18:50.344Z,44.00
2018-06-20T03:19:50.366Z,48.00
2018-06-20T03:20:50.389Z,52.00
2018-06-20T03:21:50.413Z,56.00
2018-06-20T03:22:50.438Z,60.00
2018-06-20T03:23:50.464Z,64.00
2018-06-20T03:24:50.488Z,68.00
2018-06-20T03:25:50.508Z,76.00
2018-06-20T03:26:50.535Z,76.00
2018-06-20T03:27:50.558Z,84.00
2018-06-20T03:28:50.584Z,88.00
2018-06-20T03:29:50.608Z,100.00
2018-06-20T03:30:50.631Z,108.00
2018-06-20T03:31:50.662Z,116.00
2018-06-20T03:32:50.681Z,124.00
2018-06-20T03:33:50.704Z,132.00
2018-06-20T03:34:50.725Z,136.00
2018-06-20T03:35:50.749Z,140.00
2018-06-20T03:36:50.776Z,144.00
2018-06-20T03:37:50.799Z,148.00
2018-06-20T03:38:50.821Z,152.00
2018-06-20T03:39:50.845Z,152.00
2018-06-20T03:40:50.871Z,156.00
2018-06-20T03:41:50.893Z,160.00
2018-06-20T03:42:50.920Z,160.00
2018-06-20T03:43:50.941Z,160.00
2018-06-20T03:44:50.968Z,160.00
2018-06-20T03:45:50.992Z,160.00
2018-06-20T03:46:51.013Z,164.00
2018-06-20T03:47:51.037Z,168.00
2018-06-20T03:48:51.065Z,168.00
2018-06-20T03:49:51.087Z,172.00
2018-06-20T03:50:51.110Z,172.00
2018-06-20T03:51:51.137Z,176.00
2018-06-20T03:52:51.161Z,176.00
2018-06-20T03:53:51.184Z,188.00
2018-06-20T03:54:51.206Z,200.00
2018-06-20T03:55:51.233Z,216.00
2018-06-20T03:56:51.257Z,236.00
2018-06-20T03:57:51.279Z,256.00
2018-06-20T03:58:51.303Z,268.00
2018-06-20T03:59:51.331Z,272.00
2018-06-20T04:00:51.352Z,276.00
2018-06-20T04:01:51.376Z,276.00
2018-06-20T04:02:51.403Z,292.00
2018-06-20T04:03:51.424Z,312.00
2018-06-20T04:04:51.448Z,340.00
2018-06-20T04:05:51.474Z,352.00
2018-06-20T04:06:51.500Z,360.00
2018-06-20T04:07:51.521Z,368.00
2018-06-20T04:08:51.548Z,388.00
2018-06-20T04:09:51.571Z,420.00
2018-06-20T04:10:51.597Z,448.00
2018-06-20T04:11:51.620Z,480.00
2018-06-20T04:12:51.644Z,508.00
2018-06-20T04:13:51.666Z,516.00
2018-06-20T04:14:51.691Z,500.00
2018-06-20T04:15:51.731Z,480.00
2018-06-20T04:16:52.041Z,468.00
2018-06-20T04:17:51.765Z,476.00
2018-06-20T04:18:51.788Z,504.00
2018-06-20T04:19:51.812Z,532.00
2018-06-20T04:20:51.836Z,572.00
2018-06-20T04:21:51.860Z,612.00
2018-06-20T04:22:51.890Z,620.00
2018-06-20T04:23:51.908Z,592.00
2018-06-20T04:24:51.933Z,552.00
2018-06-20T04:25:51.959Z,516.00
2018-06-20T04:26:51.980Z,488.00
2018-06-20T04:27:52.005Z,480.00
2018-06-20T04:28:52.031Z,496.00
2018-06-20T04:29:52.056Z,540.00
2018-06-20T04:30:52.080Z,600.00
2018-06-20T04:31:52.104Z,668.00
2018-06-20T04:32:52.125Z,752.00
2018-06-20T04:33:52.150Z,844.00
2018-06-20T04:34:52.180Z,948.00
2018-06-20T04:35:52.197Z,1048.00
2018-06-20T04:36:52.224Z,1132.00
2018-06-20T04:37:52.245Z,1216.00
2018-06-20T04:38:52.272Z,1292.00
2018-06-20T04:39:52.298Z,1348.00
2018-06-20T04:40:52.322Z,1396.00
2018-06-20T04:41:52.342Z,1440.00
2018-06-20T04:42:52.365Z,1484.00
2018-06-20T04:43:52.391Z,1532.00
2018-06-20T04:44:52.416Z,1580.00
2018-06-20T04:45:52.440Z,1608.00
2018-06-20T04:46:52.467Z,1640.00
2018-06-20T04:47:52.498Z,1692.00
2018-06-20T04:48:52.520Z,1740.00
2018-06-20T04:49:52.540Z,1804.00
2018-06-20T04:50:52.561Z,1892.00
2018-06-20T04:51:52.586Z,1984.00
2018-06-20T04:52:52.613Z,2068.00
2018-06-20T04:53:52.637Z,2152.00
2018-06-20T04:54:52.661Z,2204.00
2018-06-20T04:55:52.684Z,2268.00
2018-06-20T04:56:52.711Z,2316.00
2018-06-20T04:57:52.735Z,2376.00
2018-06-20T04:58:52.756Z,2456.00
2018-06-20T04:59:52.783Z,2512.00
2018-06-20T05:00:52.807Z,2544.00
2018-06-20T05:01:52.829Z,2560.00
2018-06-20T05:02:52.855Z,2588.00
2018-06-20T05:03:52.885Z,2648.00
2018-06-20T05:04:52.907Z,2728.00
2018-06-20T05:05:52.930Z,2808.00
2018-06-20T05:06:52.956Z,2916.00
2018-06-20T05:07:52.981Z,3048.00
2018-06-20T05:08:53.002Z,3116.00
2018-06-20T05:09:53.027Z,3164.00
2018-06-20T05:10:53.053Z,3216.00
2018-06-20T05:11:53.078Z,3456.00
2018-06-20T05:12:53.105Z,3448.00
2018-06-20T05:13:53.126Z,3440.00
2018-06-20T05:14:53.154Z,3364.00
2018-06-20T05:15:53.178Z,3360.00
2018-06-20T05:16:53.203Z,3336.00
2018-06-20T05:17:53.224Z,3272.00
2018-06-20T05:18:53.253Z,3276.00
2018-06-20T05:19:53.282Z,3424.00
2018-06-20T05:20:53.300Z,3528.00
2018-06-20T05:21:53.377Z,3664.00
2018-06-20T05:22:53.350Z,3696.00
2018-06-20T05:23:53.380Z,3720.00
2018-06-20T05:24:53.403Z,3700.00
2018-06-20T05:25:53.425Z,3648.00
2018-06-20T05:26:53.449Z,3548.00
2018-06-20T05:27:53.477Z,3472.00
2018-06-20T05:28:53.504Z,3532.00
2018-06-20T05:29:53.525Z,3664.00
2018-06-20T05:30:53.550Z,3784.00
2018-06-20T05:31:53.579Z,3848.00
2018-06-20T05:32:53.607Z,3796.00
2018-06-20T05:33:53.625Z,3684.00
2018-06-20T05:34:53.653Z,3664.00
2018-06-20T05:35:53.678Z,3720.00
2018-06-20T05:36:53.701Z,3864.00
2018-06-20T05:37:53.730Z,4116.00
2018-06-20T05:38:53.755Z,4176.00
2018-06-20T05:39:53.781Z,4336.00
2018-06-20T05:40:53.806Z,4440.00
2018-06-20T05:41:53.830Z,4352.00
2018-06-20T05:42:53.853Z,4096.00
2018-06-20T05:43:53.880Z,3864.00
2018-06-20T05:44:53.904Z,3856.00
2018-06-20T05:45:53.932Z,3888.00
2018-06-20T05:46:53.959Z,3920.00
2018-06-20T05:47:53.980Z,3984.00
2018-06-20T05:48:54.009Z,4068.00
2018-06-20T05:49:54.031Z,4260.00
2018-06-20T05:50:54.058Z,4456.00
2018-06-20T05:51:54.085Z,4392.00
2018-06-20T05:52:54.108Z,3980.00
2018-06-20T05:53:54.164Z,3764.00
2018-06-20T05:54:54.159Z,3900.00
2018-06-20T05:55:54.184Z,4328.00
2018-06-20T05:56:54.211Z,5476.00
2018-06-20T05:57:54.235Z,5808.00
2018-06-20T05:58:54.262Z,5564.00
2018-06-20T05:59:54.290Z,5680.00
2018-06-20T06:00:54.315Z,5760.00
2018-06-20T06:01:54.340Z,6484.00
2018-06-20T06:02:54.365Z,6744.00
2018-06-20T06:03:54.391Z,7100.00
2018-06-20T06:04:54.417Z,6344.00
2018-06-20T06:05:54.444Z,6276.00
2018-06-20T06:06:54.467Z,6872.00
2018-06-20T06:07:54.496Z,7548.00
2018-06-20T06:08:54.520Z,6752.00
2018-06-20T06:09:54.549Z,5300.00
2018-06-20T06:10:54.577Z,4588.00
2018-06-20T06:11:54.650Z,4348.00
2018-06-20T06:12:54.626Z,3788.00
2018-06-20T06:13:54.651Z,3448.00
2018-06-20T06:14:54.678Z,3592.00
2018-06-20T06:15:54.705Z,3548.00
2018-06-20T06:16:54.760Z,3716.00
2018-06-20T06:17:54.760Z,3968.00
2018-06-20T06:18:54.786Z,4076.00
2018-06-20T06:19:54.814Z,4140.00
2018-06-20T06:20:54.840Z,4168.00
2018-06-20T06:21:54.869Z,4064.00
2018-06-20T06:22:54.893Z,3912.00
2018-06-20T06:23:54.920Z,3856.00
2018-06-20T06:24:54.947Z,3868.00
2018-06-20T06:25:54.969Z,3996.00
2018-06-20T06:26:54.996Z,4220.00
2018-06-20T06:27:55.025Z,4300.00
2018-06-20T06:28:55.049Z,4504.00
2018-06-20T06:29:55.076Z,4692.00
2018-06-20T06:30:55.103Z,4688.00
2018-06-20T06:31:55.127Z,4596.00
2018-06-20T06:32:55.154Z,4712.00
2018-06-20T06:33:55.181Z,4824.00
2018-06-20T06:34:55.223Z,4808.00
2018-06-20T06:35:55.232Z,4756.00
2018-06-20T06:36:55.260Z,4752.00
2018-06-20T06:37:55.285Z,4760.00
2018-06-20T06:38:55.312Z,4740.00
2018-06-20T06:39:55.338Z,4908.00
2018-06-20T06:40:55.362Z,4768.00
2018-06-20T06:41:55.391Z,4704.00
2018-06-20T06:42:55.413Z,4648.00
2018-06-20T06:43:55.449Z,4540.00
2018-06-20T06:44:55.466Z,4316.00
2018-06-20T06:45:55.495Z,3944.00
2018-06-20T06:46:55.517Z,3756.00
2018-06-20T06:47:55.546Z,3752.00
2018-06-20T06:48:55.569Z,3808.00
2018-06-20T06:49:55.704Z,3744.00
2018-06-20T06:50:55.622Z,3936.00
2018-06-20T06:51:55.648Z,4136.00
2018-06-20T06:52:55.783Z,4184.00
2018-06-20T06:53:55.700Z,4196.00
2018-06-20T06:54:55.728Z,4392.00
2018-06-20T06:55:55.761Z,4296.00
2018-06-20T06:56:55.778Z,4188.00
2018-06-20T06:57:55.803Z,4032.00
2018-06-20T06:58:55.829Z,3984.00
2018-06-20T06:59:55.855Z,4336.00
2018-06-20T07:00:55.883Z,4904.00
2018-06-20T07:01:55.910Z,5388.00
2018-06-20T07:02:55.932Z,5716.00
2018-06-20T07:03:55.960Z,5824.00
2018-06-20T07:04:55.988Z,5720.00
2018-06-20T07:05:56.012Z,5640.00
2018-06-20T07:06:56.039Z,5732.00
2018-06-20T07:07:56.061Z,5736.00
2018-06-20T07:08:56.088Z,5556.00
2018-06-20T07:09:56.114Z,5340.00
2018-06-20T07:10:56.138Z,5296.00
2018-06-20T07:11:56.167Z,5604.00
2018-06-20T07:12:56.189Z,6192.00
2018-06-20T07:13:56.218Z,6184.00
2018-06-20T07:14:56.241Z,6492.00
2018-06-20T07:15:56.269Z,6344.00
2018-06-20T07:16:56.328Z,6204.00
2018-06-20T07:17:56.318Z,6508.00
2018-06-20T07:18:56.347Z,5872.00
2018-06-20T07:19:56.368Z,5888.00
2018-06-20T07:20:56.396Z,6472.00
2018-06-20T07:21:56.420Z,6092.00
2018-06-20T07:22:56.450Z,6232.00
2018-06-20T07:23:56.580Z,6216.00
2018-06-20T07:24:56.499Z,6712.00
2018-06-20T07:25:56.525Z,6496.00
2018-06-20T07:26:56.551Z,6312.00
2018-06-20T07:27:56.574Z,6336.00
2018-06-20T07:28:56.601Z,5764.00
2018-06-20T07:29:56.751Z,5924.00
2018-06-20T07:30:56.655Z,6188.00
2018-06-20T07:31:56.681Z,6328.00
2018-06-20T07:32:56.704Z,6084.00
2018-06-20T07:33:56.733Z,5900.00
2018-06-20T07:34:56.756Z,5544.00
2018-06-20T07:35:56.894Z,5536.00
2018-06-20T07:36:56.810Z,5756.00
2018-06-20T07:37:56.834Z,6340.00
2018-06-20T07:38:56.864Z,6988.00
2018-06-20T07:39:56.896Z,7444.00
2018-06-20T07:40:56.914Z,7844.00
2018-06-20T07:41:56.941Z,8440.00
2018-06-20T07:42:56.966Z,7864.00
2018-06-20T07:43:56.996Z,7552.00
2018-06-20T07:44:57.049Z,6648.00
2018-06-20T07:45:57.045Z,6776.00
2018-06-20T07:46:57.073Z,6420.00
2018-06-20T07:47:57.114Z,5980.00
2018-06-20T07:48:57.126Z,5628.00
2018-06-20T07:49:57.151Z,5416.00
2018-06-20T07:50:57.179Z,5796.00
2018-06-20T07:51:57.207Z,6276.00
2018-06-20T07:52:57.237Z,8072.00
2018-06-20T07:53:57.259Z,8428.00
2018-06-20T07:54:57.290Z,9384.00
2018-06-20T07:55:57.316Z,9088.00
2018-06-20T07:56:57.341Z,8644.00
2018-06-20T07:57:57.767Z,8784.00
2018-06-20T07:58:57.645Z,10040.00
2018-06-20T07:59:57.420Z,10464.00
2018-06-20T08:00:57.483Z,9916.00
2018-06-20T08:01:57.475Z,8208.00
2018-06-20T08:02:57.502Z,7532.00
2018-06-20T08:03:57.681Z,6620.00
2018-06-20T08:04:57.558Z,6268.00
2018-06-20T08:05:57.583Z,6200.00
2018-06-20T08:06:57.613Z,6240.00
2018-06-20T08:07:57.643Z,5728.00
2018-06-20T08:08:57.669Z,4904.00
2018-06-20T08:09:57.693Z,4460.00
2018-06-20T08:10:57.726Z,4228.00
2018-06-20T08:11:57.748Z,3880.00
2018-06-20T08:12:57.780Z,3520.00
2018-06-20T08:13:57.804Z,3440.00
2018-06-20T08:14:57.829Z,3988.00
2018-06-20T08:15:57.860Z,4652.00
2018-06-20T08:16:57.886Z,5336.00
2018-06-20T08:17:57.913Z,6484.00
2018-06-20T08:18:58.043Z,6552.00
2018-06-20T08:19:57.969Z,6580.00
2018-06-20T08:20:57.995Z,6556.00
2018-06-20T08:21:58.022Z,6500.00
2018-06-20T08:22:58.049Z,6416.00
2018-06-20T08:23:58.073Z,6328.00
2018-06-20T08:24:58.101Z,6416.00
2018-06-20T08:25:58.126Z,6740.00
2018-06-20T08:26:58.155Z,6864.00
2018-06-20T08:27:58.183Z,7040.00
2018-06-20T08:28:58.206Z,7428.00
2018-06-20T08:29:58.233Z,7664.00
2018-06-20T08:30:58.261Z,8692.00
2018-06-20T08:31:58.287Z,7856.00
2018-06-20T08:32:58.313Z,7804.00
2018-06-20T08:33:58.345Z,8252.00
2018-06-20T08:34:58.367Z,8932.00
2018-06-20T08:35:58.395Z,8708.00
2018-06-20T08:36:58.422Z,8632.00
2018-06-20T08:37:58.450Z,8012.00
2018-06-20T08:38:58.477Z,7328.00
2018-06-20T08:39:58.509Z,6792.00
2018-06-20T08:40:58.530Z,6452.00
2018-06-20T08:41:58.559Z,6396.00
2018-06-20T08:42:58.586Z,6540.00
2018-06-20T08:43:58.614Z,6724.00
2018-06-20T08:44:58.641Z,6892.00
2018-06-20T08:45:58.672Z,6260.00
2018-06-20T08:46:58.701Z,6760.00
2018-06-20T08:47:58.723Z,7816.00
2018-06-20T08:48:58.751Z,7392.00
2018-06-20T08:49:58.777Z,7136.00
2018-06-20T08:50:58.803Z,8644.00
2018-06-20T08:51:58.828Z,8236.00
2018-06-20T08:52:58.919Z,8296.00
2018-06-20T08:53:58.886Z,9576.00
2018-06-20T08:54:58.911Z,8244.00
2018-06-20T08:55:58.939Z,7384.00
2018-06-20T08:56:58.969Z,8936.00
2018-06-20T08:57:58.994Z,10756.00
2018-06-20T08:58:59.021Z,11120.00
2018-06-20T08:59:59.051Z,9148.00
2018-06-20T09:00:59.077Z,7724.00
2018-06-20T09:01:59.102Z,6448.00
2018-06-20T09:02:59.133Z,5100.00
2018-06-20T09:03:59.160Z,4372.00
2018-06-20T09:04:59.191Z,4104.00
2018-06-20T09:05:59.216Z,3892.00
2018-06-20T09:06:59.241Z,3760.00
2018-06-20T09:07:59.269Z,3268.00
2018-06-20T09:08:59.299Z,2864.00
2018-06-20T09:09:59.323Z,2944.00
2018-06-20T09:10:59.350Z,3196.00
2018-06-20T09:11:59.379Z,3472.00
2018-06-20T09:12:59.407Z,4088.00
2018-06-20T09:13:59.433Z,5112.00
2018-06-20T09:14:59.464Z,5992.00
2018-06-20T09:15:59.490Z,6696.00
2018-06-20T09:16:59.517Z,7024.00
2018-06-20T09:17:59.545Z,6868.00
2018-06-20T09:18:59.569Z,6732.00
2018-06-20T09:19:59.601Z,6708.00
2018-06-20T09:20:59.623Z,7172.00
2018-06-20T09:21:59.685Z,6840.00
2018-06-20T09:22:59.676Z,6796.00
2018-06-20T09:23:59.707Z,6656.00
2018-06-20T09:24:59.741Z,6572.00
2018-06-20T09:25:59.761Z,6496.00
2018-06-20T09:26:59.786Z,6392.00
2018-06-20T09:27:59.813Z,8600.00
2018-06-20T09:28:59.841Z,8616.00
2018-06-20T09:29:59.886Z,8836.00
2018-06-20T09:30:59.895Z,8156.00
2018-06-20T09:31:59.926Z,8236.00
2018-06-20T09:32:59.949Z,9644.00
2018-06-20T09:33:59.977Z,9356.00
2018-06-20T09:35:00.008Z,8020.00
2018-06-20T09:36:00.032Z,7896.00
2018-06-20T09:37:00.062Z,8676.00
2018-06-20T09:38:00.087Z,9072.00
2018-06-20T09:39:00.114Z,9276.00
2018-06-20T09:40:00.145Z,9008.00
2018-06-20T09:41:00.169Z,8828.00
2018-06-20T09:42:00.196Z,8808.00
2018-06-20T09:43:00.223Z,8660.00
2018-06-20T09:44:00.254Z,7976.00
2018-06-20T09:45:00.279Z,7488.00
2018-06-20T09:46:00.306Z,7016.00
2018-06-20T09:47:00.336Z,6376.00
2018-06-20T09:48:00.362Z,6012.00
2018-06-20T09:49:00.394Z,6164.00
2018-06-20T09:50:00.475Z,5808.00
2018-06-20T09:51:00.448Z,6872.00
2018-06-20T09:52:00.477Z,7488.00
2018-06-20T09:53:00.617Z,8448.00
2018-06-20T09:54:00.532Z,10272.00
2018-06-20T09:55:00.559Z,9856.00
2018-06-20T09:56:00.588Z,11032.00
2018-06-20T09:57:00.617Z,9908.00
2018-06-20T09:58:00.721Z,9600.00
2018-06-20T09:59:00.672Z,9432.00
2018-06-20T10:00:00.697Z,8920.00
2018-06-20T10:01:00.979Z,7820.00
2018-06-20T10:02:00.754Z,6844.00
2018-06-20T10:03:00.785Z,6116.00
2018-06-20T10:04:00.809Z,5620.00
2018-06-20T10:05:00.841Z,5660.00
2018-06-20T10:06:00.866Z,6276.00
2018-06-20T10:07:00.895Z,7012.00
2018-06-20T10:08:00.921Z,7588.00
2018-06-20T10:09:00.953Z,7864.00
2018-06-20T10:10:00.980Z,7828.00
2018-06-20T10:11:01.009Z,7224.00
2018-06-20T10:12:01.037Z,6708.00
2018-06-20T10:13:01.065Z,7120.00
2018-06-20T10:14:01.096Z,7736.00
2018-06-20T10:15:01.121Z,8156.00
2018-06-20T10:16:01.152Z,8300.00
2018-06-20T10:17:01.176Z,8300.00
2018-06-20T10:18:01.204Z,10340.00
2018-06-20T10:19:01.231Z,7964.00
2018-06-20T10:20:01.260Z,7600.00
2018-06-20T10:21:01.344Z,7604.00
2018-06-20T10:22:01.317Z,7576.00
2018-06-20T10:23:01.343Z,7636.00
2018-06-20T10:24:01.374Z,7648.00
2018-06-20T10:25:01.399Z,7264.00
2018-06-20T10:26:01.430Z,7952.00
2018-06-20T10:27:01.455Z,9204.00
2018-06-20T10:28:01.486Z,9824.00
2018-06-20T10:29:01.517Z,9080.00
2018-06-20T10:30:01.539Z,8976.00
2018-06-20T10:31:01.569Z,8588.00
2018-06-20T10:32:01.597Z,9036.00
2018-06-20T10:33:01.628Z,9648.00
2018-06-20T10:34:01.653Z,10880.00
2018-06-20T10:35:01.681Z,9108.00
2018-06-20T10:36:01.712Z,8292.00
2018-06-20T10:37:01.746Z,8156.00
2018-06-20T10:38:01.769Z,8096.00
2018-06-20T10:39:01.805Z,8112.00
2018-06-20T10:40:01.840Z,8856.00
2018-06-20T10:41:01.855Z,10436.00
2018-06-20T10:42:01.881Z,8384.00
2018-06-20T10:43:01.909Z,9612.00
2018-06-20T10:44:01.938Z,8876.00
2018-06-20T10:45:01.967Z,8564.00
2018-06-20T10:46:02.030Z,8840.00
2018-06-20T10:47:02.022Z,9172.00
2018-06-20T10:48:02.054Z,9268.00
2018-06-20T10:49:02.081Z,8668.00
2018-06-20T10:50:02.111Z,8028.00
2018-06-20T10:51:02.135Z,7720.00
2018-06-20T10:52:02.168Z,7296.00
2018-06-20T10:53:02.194Z,6840.00
2018-06-20T10:54:02.221Z,6432.00
2018-06-20T10:55:02.253Z,6636.00
2018-06-20T10:56:02.280Z,6868.00
2018-06-20T10:57:02.310Z,6896.00
2018-06-20T10:58:02.336Z,5364.00
2018-06-20T10:59:02.367Z,6864.00
2018-06-20T11:00:02.595Z,8396.00
2018-06-20T11:01:02.425Z,8668.00
2018-06-20T11:02:02.452Z,10136.00
2018-06-20T11:03:02.483Z,8836.00
2018-06-20T11:04:02.513Z,8288.00
2018-06-20T11:05:02.543Z,9328.00
2018-06-20T11:06:02.568Z,10436.00
2018-06-20T11:07:02.622Z,10456.00
2018-06-20T11:08:02.625Z,10924.00
2018-06-20T11:09:02.655Z,8512.00
2018-06-20T11:10:02.685Z,8424.00
2018-06-20T11:11:02.710Z,10620.00
2018-06-20T11:12:02.740Z,10232.00
2018-06-20T11:13:02.767Z,9728.00
2018-06-20T11:14:02.795Z,9308.00
2018-06-20T11:15:02.827Z,9028.00
2018-06-20T11:16:02.857Z,8636.00
2018-06-20T11:17:02.882Z,8496.00
2018-06-20T11:18:02.910Z,8380.00
2018-06-20T11:19:02.944Z,9776.00
2018-06-20T11:20:02.972Z,7884.00
2018-06-20T11:21:03.002Z,8784.00
2018-06-20T11:22:03.031Z,9092.00
2018-06-20T11:23:03.054Z,9892.00
2018-06-20T11:24:03.087Z,9040.00
2018-06-20T11:25:03.111Z,7596.00
2018-06-20T11:26:03.144Z,7212.00
2018-06-20T11:27:03.172Z,5952.00
2018-06-20T11:28:03.201Z,4868.00
2018-06-20T11:29:03.229Z,4404.00
2018-06-20T11:30:03.258Z,4196.00
2018-06-20T11:31:03.329Z,4648.00
2018-06-20T11:32:03.316Z,4880.00
2018-06-20T11:33:03.343Z,4892.00
2018-06-20T11:34:03.371Z,7048.00
2018-06-20T11:35:03.400Z,7424.00
2018-06-20T11:36:03.428Z,5816.00
2018-06-20T11:37:03.458Z,5592.00
2018-06-20T11:38:03.484Z,6528.00
2018-06-20T11:39:03.513Z,6184.00
2018-06-20T11:40:03.545Z,6948.00
2018-06-20T11:41:03.571Z,6648.00
2018-06-20T11:42:03.605Z,6624.00
2018-06-20T11:43:03.629Z,6664.00
2018-06-20T11:44:03.662Z,7700.00
2018-06-20T11:45:03.690Z,7964.00
2018-06-20T11:46:03.713Z,7860.00
2018-06-20T11:47:03.746Z,6736.00
2018-06-20T11:48:03.775Z,6672.00
2018-06-20T11:49:03.801Z,7324.00
2018-06-20T11:50:03.831Z,7712.00
2018-06-20T11:51:03.859Z,7136.00
2018-06-20T11:52:03.888Z,6400.00
2018-06-20T11:53:03.917Z,7092.00
2018-06-20T11:54:03.946Z,8328.00
2018-06-20T11:55:03.972Z,8244.00
2018-06-20T11:56:04.004Z,6624.00
2018-06-20T11:57:04.029Z,7888.00
2018-06-20T11:58:04.101Z,6784.00
2018-06-20T11:59:04.089Z,6740.00
2018-06-20T12:00:04.119Z,6632.00
2018-06-20T12:01:04.147Z,6272.00
2018-06-20T12:02:04.173Z,5268.00
2018-06-20T12:03:04.207Z,5080.00
2018-06-20T12:04:04.233Z,5260.00
2018-06-20T12:05:04.262Z,6080.00
2018-06-20T12:06:04.288Z,7208.00
2018-06-20T12:07:04.321Z,7080.00
2018-06-20T12:08:04.347Z,5168.00
2018-06-20T12:09:04.380Z,4840.00
2018-06-20T12:10:04.406Z,4512.00
2018-06-20T12:11:04.435Z,4968.00
2018-06-20T12:12:04.461Z,5568.00
2018-06-20T12:13:04.493Z,5864.00
2018-06-20T12:14:04.772Z,7352.00
2018-06-20T12:15:04.550Z,8412.00
2018-06-20T12:16:04.580Z,8360.00
2018-06-20T12:17:04.607Z,7708.00
2018-06-20T12:18:04.634Z,5068.00
2018-06-20T12:19:04.664Z,5272.00
2018-06-20T12:20:04.695Z,5540.00
2018-06-20T12:21:04.720Z,5708.00
2018-06-20T12:22:04.784Z,5820.00
2018-06-20T12:23:04.777Z,5984.00
2018-06-20T12:24:04.810Z,6048.00
2018-06-20T12:25:04.848Z,5944.00
2018-06-20T12:26:04.867Z,4112.00